Northwest Shearwater — ZCAO7 — position and weather

sailwx.info

Track history (hours):
 
Tides and Currents Weather Stations Pressure Air Temp Water Temp Dewpoint Dewpoint Depression Visibility Wind Speed Wind Dir Waves Ship Positions

Northwest Shearwater

Last reported at 2014-Aug-31 06:00 UTC. Time now 2014-Sep-01 18:55 UTC.
Position N 30°30' E 137°42'.

Type: Ship (hazmat cat A). MMSI: 310171000.

Wind from 050 at 9 knots

Waves 0.5 meters (2 feet), 3 second period

Barometer 1011.7 mb
Air temperature 26.2 ° C
Visibility: greater than 5.4 NM
Dewpoint 23.1 ° C
Water temperature 30.0 ° C

Date/timePositionNaut miles runAvg speedWind from/ knotsBaromVisibWave heightAir tempDewpointWater temp
2014-Aug-31 06:00N 30°30' E 137°42'26212.7 050 / 91011.7 5.4 0.526.223.130.0
2014-Aug-30 09:17N 34°34' E 139°37'1013.2
2014-Aug-30 08:30N 34°44' E 139°35'1213.1
2014-Aug-30 07:34N 34°56' E 139°37'1313.3
2014-Aug-30 06:33N 35°08' E 139°44'1111.3
2014-Aug-30 05:34N 35°19' E 139°43'1212.2
2014-Aug-30 04:33N 35°29' E 139°51'5 4.8
2014-Aug-30 03:26N 35°28' E 139°58'0 0.0
2014-Aug-30 02:32N 35°28' E 139°58'0 0.0
2014-Aug-30 01:32N 35°28' E 139°58'0 0.0
2014-Aug-30 00:32N 35°28' E 139°58'0 0.0
2014-Aug-29 23:32N 35°28' E 139°58'0 0.0
2014-Aug-29 22:32N 35°28' E 139°58'0 0.0
2014-Aug-29 21:32N 35°28' E 139°58'0 0.0
2014-Aug-29 20:32N 35°28' E 139°58'0 0.0
2014-Aug-29 19:32N 35°28' E 139°58'0 0.0
2014-Aug-29 18:32N 35°28' E 139°58'0 0.0
2014-Aug-29 17:32N 35°28' E 139°58'0 0.0
2014-Aug-29 16:32N 35°28' E 139°58'0 0.0
2014-Aug-29 15:20N 35°28' E 139°58'0 0.0
2014-Aug-29 14:32N 35°28' E 139°58'0 0.0
2014-Aug-29 13:08N 35°28' E 139°58'0 0.0
2014-Aug-29 12:29N 35°28' E 139°58'0 0.0
2014-Aug-29 11:26N 35°28' E 139°58'0 0.0
2014-Aug-29 10:32N 35°28' E 139°58'0 0.0
2014-Aug-29 09:23N 35°28' E 139°58'0 0.0
2014-Aug-29 08:29N 35°28' E 139°58'0 0.0
2014-Aug-29 07:30N 35°28' E 139°58'0 0.0
2014-Aug-29 06:12N 35°28' E 139°58'0 0.1
2014-Aug-29 05:33N 35°28' E 139°58'4 3.7
2014-Aug-29 04:33N 35°29' E 139°54'10 9.5
2014-Aug-29 03:33N 35°22' E 139°45'1211.5
2014-Aug-29 02:33N 35°11' E 139°47'9 8.7
2014-Aug-29 01:33N 35°03' E 139°43'1212.1
2014-Aug-29 00:33N 34°51' E 139°37'1414.2
2014-Aug-28 23:33N 34°37' E 139°40'  
2014-Aug-24 06:00N 06°48' E 128°42'79916.6 200 / 81008.810.8 0.529.925.330.4
2014-Aug-22 06:00S 06°06' E 125°24'   110 / 171010.710.8 1.027.821.927.2
Track history (hours):
 
Tides and Currents Weather Stations Pressure Air Temp Water Temp Dewpoint Dewpoint Depression Visibility Wind Speed Wind Dir Waves Ship Positions

Northwest Shearwater

Last reported at 2014-Aug-31 06:00 UTC. Time now 2014-Sep-01 18:55 UTC.
Position N 30°30' E 137°42'.

Type: Ship (hazmat cat A). MMSI: 310171000.

Wind from 050 at 9 knots

Waves 0.5 meters (2 feet), 3 second period

Barometer 1011.7 mb
Air temperature 26.2 ° C
Visibility: greater than 5.4 NM
Dewpoint 23.1 ° C
Water temperature 30.0 ° C

Date/timePositionNaut miles runAvg speedWind from/ knotsBaromVisibWave heightAir tempDewpointWater temp
2014-Aug-31 06:00N 30°30' E 137°42'26212.7 050 / 91011.7 5.4 0.526.223.130.0
2014-Aug-30 09:17N 34°34' E 139°37'1013.2
2014-Aug-30 08:30N 34°44' E 139°35'1213.1
2014-Aug-30 07:34N 34°56' E 139°37'1313.3
2014-Aug-30 06:33N 35°08' E 139°44'1111.3
2014-Aug-30 05:34N 35°19' E 139°43'1212.2
2014-Aug-30 04:33N 35°29' E 139°51'5 4.8
2014-Aug-30 03:26N 35°28' E 139°58'0 0.0
2014-Aug-30 02:32N 35°28' E 139°58'0 0.0
2014-Aug-30 01:32N 35°28' E 139°58'0 0.0
2014-Aug-30 00:32N 35°28' E 139°58'0 0.0
2014-Aug-29 23:32N 35°28' E 139°58'0 0.0
2014-Aug-29 22:32N 35°28' E 139°58'0 0.0
2014-Aug-29 21:32N 35°28' E 139°58'0 0.0
2014-Aug-29 20:32N 35°28' E 139°58'0 0.0
2014-Aug-29 19:32N 35°28' E 139°58'0 0.0
2014-Aug-29 18:32N 35°28' E 139°58'0 0.0
2014-Aug-29 17:32N 35°28' E 139°58'0 0.0
2014-Aug-29 16:32N 35°28' E 139°58'0 0.0
2014-Aug-29 15:20N 35°28' E 139°58'0 0.0
2014-Aug-29 14:32N 35°28' E 139°58'0 0.0
2014-Aug-29 13:08N 35°28' E 139°58'0 0.0
2014-Aug-29 12:29N 35°28' E 139°58'0 0.0
2014-Aug-29 11:26N 35°28' E 139°58'0 0.0
2014-Aug-29 10:32N 35°28' E 139°58'0 0.0
2014-Aug-29 09:23N 35°28' E 139°58'0 0.0
2014-Aug-29 08:29N 35°28' E 139°58'0 0.0
2014-Aug-29 07:30N 35°28' E 139°58'0 0.0
2014-Aug-29 06:12N 35°28' E 139°58'0 0.1
2014-Aug-29 05:33N 35°28' E 139°58'4 3.7
2014-Aug-29 04:33N 35°29' E 139°54'10 9.5
2014-Aug-29 03:33N 35°22' E 139°45'1211.5
2014-Aug-29 02:33N 35°11' E 139°47'9 8.7
2014-Aug-29 01:33N 35°03' E 139°43'1212.1
2014-Aug-29 00:33N 34°51' E 139°37'1414.2
2014-Aug-28 23:33N 34°37' E 139°40'  
2014-Aug-24 06:00N 06°48' E 128°42'79916.6 200 / 81008.810.8 0.529.925.330.4
2014-Aug-22 06:00S 06°06' E 125°24'   110 / 171010.710.8 1.027.821.927.2

Dump ship's entire track history